Croydon, New Hampshire
Current Conditions -  °F | °C
As of 2:54 PM on Wednesday 17 Dec 2014 (Local Time) from KVSF Reporting Station
Overcast Overcast  
Wind Chill: 37°   Ceiling: 3800
Heat Index: 37°   Visibility: 9mi
Dew Point: 36°   Wind: 0mph
Humidity: 96%   Direction: NA
Pressure: 29.74"   Gusts: NA
Location:  43.3489°N, 72.2102°W
Report Text: KVSF 171954Z AUTO 00000KT 9SM FEW020 FEW024 OVC038 03/02 A2974 RMK AO2 SLP076 T00280022 TSNO
Loading
Personal Weather Stations






























Interactive Weather Map New forecast layout! Learn more

10-Day Weather Forecast

Advertisements
Track Severe Weather on mobile